This is the latest recevied weather packets stored in our database for station/object MARKET. If no packets are shown the sender has not sent any weather packets the latest 10 day(s).
| Time | Temp. | Humidity | Pressure | Rain* | Wind** | Luminosity | Snow |
|---|---|---|---|---|---|---|---|
| 1777751230 | 10.56° C | 58% | 1006.1 hPa | - | - | - | - |
| 1777750031 | 10.56° C | 60% | 1006.2 hPa | - | - | - | - |
| 1777748830 | 11.67° C | 56% | 1005.9 hPa | - | - | - | - |
| 1777747630 | 17.78° C | 35% | 1005.6 hPa | - | - | - | - |
| 1777746430 | 18.33° C | 35% | 1005.6 hPa | - | - | - | - |
| 1777745230 | 15.56° C | 41% | 1005.6 hPa | - | - | - | - |
| 1777744030 | 16.11° C | 41% | 1005.7 hPa | - | - | - | - |
| 1777742830 | 15.56° C | 43% | 1005.8 hPa | - | - | - | - |
| 1777741629 | 12.22° C | 55% | 1005.9 hPa | - | - | - | - |
| 1777740430 | 14.44° C | 48% | 1005.9 hPa | - | - | - | - |
| 1777739229 | 14.44° C | 50% | 1006 hPa | - | - | - | - |
| 1777738030 | 17.78° C | 38% | 1006.2 hPa | - | - | - | - |
| 1777736829 | 16.11° C | 41% | 1006.5 hPa | - | - | - | - |
| 1777735629 | 13.89° C | 48% | 1006.9 hPa | - | - | - | - |
| 1777734430 | 13.33° C | 52% | 1007.3 hPa | - | - | - | - |
| 1777733229 | 15° C | 46% | 1007.4 hPa | - | - | - | - |
| 1777732029 | 13.89° C | 48% | 1007.6 hPa | - | - | - | - |
| 1777729629 | 17.78° C | 34% | 1008 hPa | - | - | - | - |
| 1777728429 | 17.22° C | 35% | 1008.2 hPa | - | - | - | - |
| 1777727229 | 15° C | 43% | 1008.4 hPa | - | - | - | - |
| 1777726029 | 15.56° C | 40% | 1008.5 hPa | - | - | - | - |
| 1777724829 | 14.44° C | 40% | 1008.9 hPa | - | - | - | - |
| 1777723629 | 12.22° C | 52% | 1009.2 hPa | - | - | - | - |
| 1777722429 | 13.33° C | 46% | 1009.3 hPa | - | - | - | - |
| 1777721229 | 13.33° C | 45% | 1009.5 hPa | - | - | - | - |
* Rain since midnight (hover to see other rain measurements)
** Current wind speed in m/s (hover to see current wind gust speed)